createdAt,value
2022-11-13T00:00:01.807Z,28.52
2022-11-13T00:02:47.450Z,28.38
2022-11-13T00:05:33.524Z,28.02
2022-11-13T00:08:19.229Z,26.52
2022-11-13T00:11:07.662Z,27.05
2022-11-13T00:13:53.428Z,26.95
2022-11-13T00:16:39.437Z,27.48
2022-11-13T00:19:25.307Z,25.33
2022-11-13T00:22:11.127Z,26.62
2022-11-13T00:24:56.612Z,28.12
2022-11-13T00:27:42.577Z,26.33
2022-11-13T00:30:28.250Z,27.50
2022-11-13T00:33:18.908Z,27.20
2022-11-13T00:36:17.968Z,26.40
2022-11-13T00:39:03.689Z,27.60
2022-11-13T00:41:49.409Z,25.30
2022-11-13T00:44:35.342Z,26.42
2022-11-13T00:47:21.051Z,25.62
2022-11-13T00:50:07.043Z,26.77
2022-11-13T00:52:52.745Z,26.73
2022-11-13T00:55:38.523Z,25.98
2022-11-13T00:58:24.230Z,25.80
2022-11-13T01:01:12.967Z,24.60
2022-11-13T01:03:58.948Z,25.52
2022-11-13T01:06:44.827Z,25.00
2022-11-13T01:09:30.948Z,24.73
2022-11-13T01:12:16.535Z,25.33
2022-11-13T01:15:02.278Z,25.90
2022-11-13T01:17:48.117Z,26.02
2022-11-13T01:20:33.913Z,24.98
2022-11-13T01:23:19.873Z,25.15
2022-11-13T01:26:26.642Z,25.40
2022-11-13T01:29:12.618Z,25.98
2022-11-13T01:31:58.612Z,24.55
2022-11-13T01:34:44.328Z,26.02
2022-11-13T01:37:30.039Z,25.25
2022-11-13T01:40:15.780Z,25.55
2022-11-13T01:43:19.297Z,25.30
2022-11-13T01:46:09.785Z,25.67
2022-11-13T01:48:58.255Z,24.98
2022-11-13T01:51:53.230Z,26.02
2022-11-13T01:54:41.805Z,25.85
2022-11-13T01:57:27.571Z,25.02
2022-11-13T02:00:13.704Z,24.90
2022-11-13T02:02:59.785Z,25.17
2022-11-13T02:05:45.710Z,24.50
2022-11-13T02:08:31.728Z,24.10
2022-11-13T02:11:18.088Z,24.10
2022-11-13T02:14:04.855Z,25.30
2022-11-13T02:16:53.052Z,26.30
2022-11-13T02:19:42.723Z,26.95
2022-11-13T02:22:39.071Z,26.50
2022-11-13T02:25:25.736Z,28.15
2022-11-13T02:28:11.464Z,26.90
2022-11-13T02:30:57.444Z,27.30
2022-11-13T02:33:43.158Z,28.30
2022-11-13T02:36:30.165Z,25.45
2022-11-13T02:39:15.984Z,27.23
2022-11-13T02:42:01.739Z,25.37
2022-11-13T02:44:47.548Z,25.27
2022-11-13T02:47:33.841Z,24.23
2022-11-13T02:50:19.834Z,24.90
2022-11-13T02:53:06.440Z,27.52
2022-11-13T02:55:52.433Z,27.95
2022-11-13T02:58:38.263Z,24.17
2022-11-13T03:01:24.249Z,26.15
2022-11-13T03:04:10.412Z,27.98
2022-11-13T03:06:56.403Z,29.20
2022-11-13T03:09:42.621Z,29.75
2022-11-13T03:12:28.436Z,27.15
2022-11-13T03:15:14.152Z,25.90
2022-11-13T03:18:05.823Z,27.83
2022-11-13T03:20:54.032Z,26.70
2022-11-13T03:23:40.783Z,27.25
2022-11-13T03:26:29.553Z,27.08
2022-11-13T03:29:15.452Z,26.95
2022-11-13T03:32:03.174Z,26.60
2022-11-13T03:34:49.077Z,28.58
2022-11-13T03:37:34.782Z,33.92
2022-11-13T03:40:20.613Z,30.80
2022-11-13T03:43:06.472Z,32.25
2022-11-13T03:45:52.236Z,35.72
2022-11-13T03:48:37.901Z,34.08
2022-11-13T03:51:23.681Z,34.28
2022-11-13T03:54:09.671Z,33.83
2022-11-13T03:56:55.335Z,32.88
2022-11-13T03:59:40.970Z,31.42
2022-11-13T04:02:26.766Z,32.72
2022-11-13T04:05:12.597Z,34.33
2022-11-13T04:07:58.694Z,34.80
2022-11-13T04:10:45.287Z,34.72
2022-11-13T04:13:31.289Z,38.00
2022-11-13T04:16:17.195Z,34.83
2022-11-13T04:19:03.357Z,37.10
2022-11-13T04:21:49.241Z,31.20
2022-11-13T04:24:35.046Z,30.95
2022-11-13T04:27:20.644Z,31.15
2022-11-13T04:30:07.331Z,30.62
2022-11-13T04:32:53.238Z,31.08
2022-11-13T04:35:41.688Z,31.17
2022-11-13T04:38:27.740Z,30.52
2022-11-13T04:41:32.512Z,28.45
2022-11-13T04:44:18.280Z,28.58
2022-11-13T04:47:03.878Z,25.05
2022-11-13T04:49:49.558Z,24.63
2022-11-13T04:52:35.535Z,28.65
2022-11-13T04:55:21.535Z,25.75
2022-11-13T04:58:07.117Z,27.45
2022-11-13T05:00:53.164Z,23.95
2022-11-13T05:03:38.976Z,23.92
2022-11-13T05:06:24.592Z,22.55
2022-11-13T05:09:11.309Z,21.75
2022-11-13T05:11:56.952Z,18.90
2022-11-13T05:14:42.791Z,19.37
2022-11-13T05:17:28.565Z,21.73
2022-11-13T05:20:14.467Z,22.02
2022-11-13T05:23:00.175Z,20.70
2022-11-13T05:25:46.107Z,25.75
2022-11-13T05:28:31.931Z,27.87
2022-11-13T05:31:18.075Z,26.87
2022-11-13T05:34:06.146Z,23.87
2022-11-13T05:36:52.258Z,23.90
2022-11-13T05:39:38.338Z,23.38
2022-11-13T05:42:23.957Z,23.85
2022-11-13T05:45:10.347Z,22.50
2022-11-13T05:47:57.335Z,25.60
2022-11-13T05:50:43.025Z,26.58
2022-11-13T05:53:28.923Z,24.23
2022-11-13T05:56:37.367Z,23.48
2022-11-13T05:59:23.297Z,23.77
2022-11-13T06:02:08.951Z,25.90
2022-11-13T06:04:56.494Z,25.48
2022-11-13T06:07:42.607Z,22.80
2022-11-13T06:10:28.193Z,23.80
2022-11-13T06:13:14.015Z,24.27
2022-11-13T06:16:05.792Z,24.08
2022-11-13T06:18:58.669Z,24.58
2022-11-13T06:21:44.395Z,25.02
2022-11-13T06:24:30.062Z,26.27
2022-11-13T06:27:15.787Z,26.23
2022-11-13T06:30:01.490Z,22.05
2022-11-13T06:32:53.633Z,21.95
2022-11-13T06:35:39.389Z,23.40
2022-11-13T06:38:25.541Z,19.98
2022-11-13T06:41:13.396Z,21.95
2022-11-13T06:44:02.725Z,20.05
2022-11-13T06:46:49.001Z,20.30
2022-11-13T06:49:34.507Z,21.65
2022-11-13T06:52:20.547Z,20.85
2022-11-13T06:55:06.292Z,22.60
2022-11-13T06:57:51.972Z,28.38
2022-11-13T07:00:40.048Z,28.17
2022-11-13T07:03:27.051Z,25.90
2022-11-13T07:06:20.863Z,27.60
2022-11-13T07:09:06.587Z,26.73
2022-11-13T07:11:52.369Z,27.80
2022-11-13T07:14:38.165Z,25.52
2022-11-13T07:17:23.819Z,26.17
2022-11-13T07:20:10.194Z,24.00
2022-11-13T07:22:56.917Z,24.48
2022-11-13T07:25:42.695Z,26.62
2022-11-13T07:28:28.789Z,24.52
2022-11-13T07:31:16.193Z,25.17
2022-11-13T07:34:02.267Z,21.30
2022-11-13T07:36:48.036Z,24.20
2022-11-13T07:39:33.496Z,24.30
2022-11-13T07:42:19.223Z,23.58
2022-11-13T07:45:05.910Z,22.25
2022-11-13T07:47:51.946Z,23.65
2022-11-13T07:50:38.543Z,24.27
2022-11-13T07:53:24.655Z,22.70
2022-11-13T07:56:10.221Z,22.15
2022-11-13T07:58:56.101Z,23.02
2022-11-13T08:01:41.930Z,23.02
2022-11-13T08:04:28.418Z,22.50
2022-11-13T08:07:14.344Z,23.42
2022-11-13T08:10:00.542Z,22.37
2022-11-13T08:12:46.778Z,27.17
2022-11-13T08:15:33.663Z,23.55
2022-11-13T08:18:19.496Z,20.50
2022-11-13T08:21:10.492Z,20.05
2022-11-13T08:23:59.461Z,18.90
2022-11-13T08:26:45.223Z,26.15
2022-11-13T08:29:31.023Z,21.95
2022-11-13T08:32:19.013Z,23.25
2022-11-13T08:35:05.489Z,23.95
2022-11-13T08:37:51.476Z,24.50
2022-11-13T08:40:37.485Z,23.62
2022-11-13T08:43:23.321Z,23.48
2022-11-13T08:46:08.988Z,21.52
2022-11-13T08:48:54.908Z,22.15
2022-11-13T08:51:40.823Z,25.00
2022-11-13T08:54:26.685Z,23.83
2022-11-13T08:57:12.399Z,24.05
2022-11-13T08:59:58.123Z,23.40
2022-11-13T09:02:44.412Z,22.73
2022-11-13T09:05:30.305Z,21.33
2022-11-13T09:08:16.093Z,21.55
2022-11-13T09:11:04.165Z,21.27
2022-11-13T09:13:53.352Z,20.50
2022-11-13T09:16:40.339Z,22.05
2022-11-13T09:19:27.193Z,22.33
2022-11-13T09:22:13.346Z,20.33
2022-11-13T09:24:59.023Z,20.85
2022-11-13T09:27:52.509Z,20.95
2022-11-13T09:30:39.447Z,20.17
2022-11-13T09:33:25.123Z,20.85
2022-11-13T09:36:12.711Z,20.98
2022-11-13T09:39:00.734Z,20.17
2022-11-13T09:41:51.453Z,22.95
2022-11-13T09:45:01.624Z,20.00
2022-11-13T09:47:48.721Z,19.95
2022-11-13T09:50:34.514Z,20.05
2022-11-13T09:53:20.938Z,19.10
2022-11-13T09:56:06.971Z,20.30
2022-11-13T09:59:23.643Z,19.92
2022-11-13T10:02:23.669Z,21.30
2022-11-13T10:05:13.920Z,20.55
2022-11-13T10:08:13.710Z,20.98
2022-11-13T10:11:25.885Z,21.20
2022-11-13T10:14:19.568Z,24.10
2022-11-13T10:17:15.529Z,24.95
2022-11-13T10:20:05.064Z,24.92
2022-11-13T10:23:09.389Z,23.67
2022-11-13T10:25:56.879Z,22.55
2022-11-13T10:28:50.589Z,24.37
2022-11-13T10:31:48.908Z,24.08
2022-11-13T10:34:34.493Z,26.92
2022-11-13T10:37:28.939Z,26.37
2022-11-13T10:40:28.485Z,24.92
2022-11-13T10:43:17.492Z,27.45
2022-11-13T10:46:05.897Z,27.08
2022-11-13T10:48:51.812Z,24.05
2022-11-13T10:51:39.236Z,23.90
2022-11-13T10:54:27.957Z,24.23
2022-11-13T10:57:24.096Z,25.75
2022-11-13T11:00:21.328Z,26.98
2022-11-13T11:03:22.042Z,24.55
2022-11-13T11:06:09.520Z,22.00
2022-11-13T11:09:06.246Z,22.70
2022-11-13T11:12:16.151Z,22.25
2022-11-13T11:15:22.044Z,22.65
2022-11-13T11:18:19.271Z,20.95
2022-11-13T11:21:10.664Z,21.67
2022-11-13T11:24:06.805Z,21.50
2022-11-13T11:27:11.604Z,20.70
2022-11-13T11:30:12.648Z,21.67
2022-11-13T11:33:19.897Z,21.87
2022-11-13T11:36:19.056Z,21.65
2022-11-13T11:39:15.790Z,21.85
2022-11-13T11:42:35.854Z,20.05
2022-11-13T11:45:21.558Z,19.45
2022-11-13T11:48:15.617Z,20.98
2022-11-13T11:51:04.350Z,19.87
2022-11-13T11:54:04.944Z,18.17
2022-11-13T11:56:57.182Z,18.50
2022-11-13T11:59:46.698Z,15.50
2022-11-13T12:02:53.145Z,17.98
2022-11-13T12:05:47.329Z,19.23
2022-11-13T12:08:38.892Z,19.05
2022-11-13T12:11:30.607Z,19.23
2022-11-13T12:14:25.187Z,18.25
2022-11-13T12:17:27.967Z,18.42
2022-11-13T12:20:22.612Z,19.98
2022-11-13T12:23:15.264Z,19.62
2022-11-13T12:26:29.111Z,20.35
2022-11-13T12:29:33.199Z,15.63
2022-11-13T12:32:35.263Z,16.83
2022-11-13T12:35:23.590Z,16.48
2022-11-13T12:39:00.740Z,17.02
2022-11-13T12:45:01.618Z,15.43
2022-11-13T12:47:52.137Z,15.40
2022-11-13T12:50:37.830Z,16.20
2022-11-13T12:53:28.945Z,16.98
2022-11-13T12:56:17.679Z,15.82
2022-11-13T12:59:34.044Z,16.50
2022-11-13T13:02:42.159Z,16.23
2022-11-13T13:05:37.541Z,14.48
2022-11-13T13:11:30.541Z,15.23
2022-11-13T13:14:25.257Z,15.73
2022-11-13T13:17:13.683Z,15.25
2022-11-13T13:20:19.566Z,16.23
2022-11-13T13:26:06.601Z,16.37
2022-11-13T13:28:53.485Z,14.60
2022-11-13T13:31:44.182Z,15.68
2022-11-13T13:34:41.660Z,15.93
2022-11-13T13:37:36.627Z,17.35
2022-11-13T13:40:43.085Z,17.48
2022-11-13T13:43:51.588Z,16.92
2022-11-13T13:46:37.501Z,18.95
2022-11-13T13:49:24.504Z,18.45
2022-11-13T13:52:15.241Z,16.25
2022-11-13T13:55:03.599Z,17.12
2022-11-13T13:57:49.670Z,16.75
2022-11-13T14:00:41.091Z,18.70
2022-11-13T14:03:39.242Z,18.00
2022-11-13T14:06:25.009Z,19.73
2022-11-13T14:09:15.968Z,19.65
2022-11-13T14:12:09.994Z,20.23
2022-11-13T14:14:56.312Z,20.77
2022-11-13T14:17:41.893Z,21.62
2022-11-13T14:20:27.761Z,20.98
2022-11-13T14:23:24.758Z,21.92
2022-11-13T14:26:12.092Z,21.25
2022-11-13T14:29:00.174Z,21.17
2022-11-13T14:31:45.923Z,22.52
2022-11-13T14:34:32.381Z,21.33
2022-11-13T14:37:38.525Z,22.02
2022-11-13T14:40:30.381Z,22.50
2022-11-13T14:43:21.069Z,22.87
2022-11-13T14:46:27.013Z,22.33
2022-11-13T14:49:15.150Z,20.73
2022-11-13T14:52:01.697Z,22.60
2022-11-13T14:55:13.798Z,21.17
2022-11-13T14:57:54.040Z,31.08
2022-11-13T15:00:39.761Z,24.58
2022-11-13T15:03:26.865Z,22.27
2022-11-13T15:06:23.732Z,23.95
2022-11-13T15:09:14.177Z,21.87
2022-11-13T15:12:00.280Z,21.75
2022-11-13T15:14:46.149Z,21.20
2022-11-13T15:17:32.250Z,20.77
2022-11-13T15:20:29.300Z,21.23
2022-11-13T15:23:16.323Z,21.92
2022-11-13T15:26:02.997Z,27.20
2022-11-13T15:28:49.034Z,26.27
2022-11-13T15:31:41.944Z,26.30
2022-11-13T15:34:27.844Z,25.65
2022-11-13T15:37:15.912Z,25.05
2022-11-13T15:40:02.056Z,23.02
2022-11-13T15:42:48.325Z,24.08
2022-11-13T15:45:35.477Z,23.80
2022-11-13T15:48:23.799Z,23.12
2022-11-13T15:51:18.813Z,28.45
2022-11-13T15:54:15.922Z,25.92
2022-11-13T15:57:02.261Z,27.45
2022-11-13T15:59:48.932Z,26.05
2022-11-13T16:02:36.024Z,27.00
2022-11-13T16:05:26.058Z,24.87
2022-11-13T16:08:12.851Z,22.35
2022-11-13T16:10:58.679Z,24.95
2022-11-13T16:13:44.991Z,25.55
2022-11-13T16:16:37.041Z,24.50
2022-11-13T16:19:24.224Z,25.88
2022-11-13T16:22:20.709Z,24.92
2022-11-13T16:25:11.717Z,26.35
2022-11-13T16:27:58.417Z,23.73
2022-11-13T16:30:45.952Z,24.90
2022-11-13T16:33:32.443Z,28.08
2022-11-13T16:36:20.100Z,35.10
2022-11-13T16:39:06.517Z,30.92
2022-11-13T16:41:52.809Z,32.17
2022-11-13T16:44:39.077Z,34.08
2022-11-13T16:47:26.482Z,38.47
2022-11-13T16:50:21.609Z,46.00
2022-11-13T16:53:09.505Z,48.50
2022-11-13T16:55:55.683Z,46.20
2022-11-13T16:58:42.611Z,43.17
2022-11-13T17:01:28.718Z,42.97
2022-11-13T17:04:17.324Z,42.55
2022-11-13T17:07:03.810Z,35.50
2022-11-13T17:10:09.995Z,33.10
2022-11-13T17:12:56.893Z,32.00
2022-11-13T17:15:46.457Z,29.00
2022-11-13T17:18:33.369Z,27.87
2022-11-13T17:21:21.205Z,27.45
2022-11-13T17:24:09.282Z,26.60
2022-11-13T17:26:55.606Z,27.08
2022-11-13T17:29:41.796Z,25.17
2022-11-13T17:32:28.036Z,24.60
2022-11-13T17:35:14.244Z,24.08
2022-11-13T17:38:01.537Z,25.15
2022-11-13T17:40:47.635Z,24.52
2022-11-13T17:43:37.780Z,22.90
2022-11-13T17:46:24.223Z,22.67
2022-11-13T17:49:11.453Z,23.40
2022-11-13T17:51:57.363Z,23.75
2022-11-13T17:54:43.955Z,23.77
2022-11-13T17:57:31.890Z,21.70
2022-11-13T18:00:18.921Z,26.80
2022-11-13T18:03:05.181Z,27.75
2022-11-13T18:05:51.457Z,27.95
2022-11-13T18:08:41.873Z,27.08
2022-11-13T18:11:29.348Z,23.67
2022-11-13T18:14:15.153Z,23.17
2022-11-13T18:17:01.373Z,24.90
2022-11-13T18:19:48.016Z,23.95
2022-11-13T18:22:34.043Z,23.55
2022-11-13T18:25:20.626Z,23.85
2022-11-13T18:28:07.855Z,27.20
2022-11-13T18:30:56.615Z,27.20
2022-11-13T18:33:45.777Z,25.40
2022-11-13T18:36:36.103Z,25.20
2022-11-13T18:39:22.538Z,23.77
2022-11-13T18:42:09.277Z,23.95
2022-11-13T18:44:55.825Z,26.90
2022-11-13T18:47:43.117Z,25.73
2022-11-13T18:50:30.254Z,25.70
2022-11-13T18:53:17.707Z,28.75
2022-11-13T18:56:09.201Z,26.45
2022-11-13T18:58:58.155Z,27.00
2022-11-13T19:01:45.177Z,27.20
2022-11-13T19:04:31.982Z,27.35
2022-11-13T19:07:19.529Z,27.70
2022-11-13T19:10:06.625Z,27.50
2022-11-13T19:12:53.590Z,27.40
2022-11-13T19:15:39.913Z,31.35
2022-11-13T19:18:26.600Z,31.92
2022-11-13T19:21:14.937Z,30.67
2022-11-13T19:24:02.475Z,29.95
2022-11-13T19:26:48.449Z,31.52
2022-11-13T19:29:35.230Z,30.73
2022-11-13T19:32:21.827Z,32.05
2022-11-13T19:35:11.794Z,31.00
2022-11-13T19:37:58.540Z,28.58
2022-11-13T19:40:47.543Z,31.00
2022-11-13T19:43:38.526Z,34.28
2022-11-13T19:46:25.938Z,32.33
2022-11-13T19:49:12.661Z,33.95
2022-11-13T19:51:59.550Z,31.70
2022-11-13T19:54:46.133Z,31.52
2022-11-13T19:57:32.501Z,32.17
2022-11-13T20:00:19.566Z,32.03
2022-11-13T20:03:07.918Z,31.75
2022-11-13T20:05:56.518Z,35.60
2022-11-13T20:08:43.320Z,33.85
2022-11-13T20:11:30.183Z,33.70
2022-11-13T20:14:17.243Z,32.72
2022-11-13T20:17:03.955Z,31.77
2022-11-13T20:19:50.184Z,32.88
2022-11-13T20:22:36.477Z,32.10
2022-11-13T20:25:22.878Z,35.70
2022-11-13T20:28:08.988Z,37.75
2022-11-13T20:31:20.079Z,35.47
2022-11-13T20:34:06.927Z,36.60
2022-11-13T20:36:53.885Z,35.97
2022-11-13T20:39:42.270Z,41.58
2022-11-13T20:42:29.004Z,43.30
2022-11-13T20:45:15.484Z,47.22
2022-11-13T20:48:02.490Z,55.40
2022-11-13T20:50:49.294Z,55.63
2022-11-13T20:53:36.155Z,69.80
2022-11-13T20:56:23.764Z,63.67
2022-11-13T20:59:10.159Z,64.20
2022-11-13T21:01:57.002Z,65.55
2022-11-13T21:04:45.875Z,49.60
2022-11-13T21:07:32.657Z,44.60
2022-11-13T21:10:19.044Z,47.75
2022-11-13T21:13:04.967Z,52.05
2022-11-13T21:15:51.648Z,55.00
2022-11-13T21:18:38.234Z,49.65
2022-11-13T21:21:26.649Z,50.35
2022-11-13T21:24:12.945Z,51.22
2022-11-13T21:26:59.351Z,56.50
2022-11-13T21:29:45.294Z,59.97
2022-11-13T21:32:31.523Z,55.12
2022-11-13T21:35:22.358Z,54.00
2022-11-13T21:38:08.581Z,51.85
2022-11-13T21:41:20.559Z,58.28
2022-11-13T21:44:08.441Z,57.42
2022-11-13T21:46:54.260Z,57.25
2022-11-13T21:49:40.254Z,60.10
2022-11-13T21:52:25.885Z,53.92
2022-11-13T21:55:11.669Z,45.00
2022-11-13T21:57:57.709Z,42.83
2022-11-13T22:00:44.422Z,30.25
2022-11-13T22:03:31.251Z,33.72
2022-11-13T22:06:21.442Z,26.33
2022-11-13T22:09:14.118Z,25.90
2022-11-13T22:12:00.241Z,27.58
2022-11-13T22:14:46.231Z,28.02
2022-11-13T22:17:32.547Z,26.80
2022-11-13T22:20:18.656Z,23.85
2022-11-13T22:23:05.784Z,25.67
2022-11-13T22:25:55.748Z,25.80
2022-11-13T22:28:44.926Z,25.30
2022-11-13T22:31:31.740Z,24.77
2022-11-13T22:34:18.233Z,23.45
2022-11-13T22:37:03.911Z,21.98
2022-11-13T22:39:49.696Z,25.30
2022-11-13T22:42:35.410Z,23.92
2022-11-13T22:45:24.669Z,23.92
2022-11-13T22:48:11.297Z,23.55
2022-11-13T22:51:02.217Z,23.33
2022-11-13T22:53:50.521Z,23.10
2022-11-13T22:56:38.118Z,23.90
2022-11-13T22:59:24.034Z,22.70
2022-11-13T23:02:10.018Z,20.90
2022-11-13T23:04:55.998Z,21.45
2022-11-13T23:07:42.099Z,22.60
2022-11-13T23:10:27.973Z,21.08
2022-11-13T23:13:13.938Z,21.17
2022-11-13T23:16:00.802Z,19.35
2022-11-13T23:18:47.158Z,18.87
2022-11-13T23:21:33.507Z,17.42
2022-11-13T23:24:20.438Z,20.08
2022-11-13T23:27:06.006Z,18.55
2022-11-13T23:29:52.249Z,19.17
2022-11-13T23:32:38.234Z,19.62
2022-11-13T23:35:24.159Z,18.52
2022-11-13T23:38:10.014Z,18.70
2022-11-13T23:40:58.273Z,18.75
2022-11-13T23:46:50.247Z,19.75
2022-11-13T23:49:36.111Z,19.10
2022-11-13T23:52:21.787Z,18.67
2022-11-13T23:55:08.678Z,18.52
2022-11-13T23:58:02.396Z,20.30
